Time;durP1;ratioP1;P1;durP2;ratioP2;P2;SDS_P1;SDS_P2;PMS_P1;PMS_P2;Temp;Humidity;BMP_temperature;BMP_pressure;BME280_temperature;BME280_humidity;BME280_pressure;Samples;Min_cycle;Max_cycle;Signal;HPM_P1;HPM_P2
2021/08/05 00:01:04;;;;;;;2.20;2.10;;;18.50;78.50;;;;;;5040936;28;20474;-85
2021/08/05 00:03:30;;;;;;;2.13;2.03;;;18.50;78.50;;;;;;5046695;28;20036;-85
2021/08/05 00:05:56;;;;;;;2.03;1.92;;;18.50;78.50;;;;;;5044824;28;20505;-85
2021/08/05 00:08:22;;;;;;;2.08;1.98;;;18.50;78.50;;;;;;5046200;28;20043;-85
2021/08/05 00:10:48;;;;;;;2.10;2.00;;;18.50;78.50;;;;;;5036050;28;20040;-86
2021/08/05 00:13:14;;;;;;;2.80;2.45;;;18.50;78.50;;;;;;5035213;28;20056;-85
2021/08/05 00:15:40;;;;;;;4.50;2.33;;;18.50;78.50;;;;;;5032317;28;20037;-85
2021/08/05 00:18:07;;;;;;;2.90;2.70;;;18.50;78.50;;;;;;5032371;28;20378;-85
2021/08/05 00:20:33;;;;;;;2.25;2.15;;;18.50;78.50;;;;;;5031679;28;20030;-85
2021/08/05 00:22:59;;;;;;;2.38;2.28;;;18.50;78.50;;;;;;5036648;28;20056;-85
2021/08/05 00:25:25;;;;;;;2.28;2.17;;;18.40;78.40;;;;;;5034791;28;20025;-83
2021/08/05 00:27:51;;;;;;;2.38;2.28;;;18.40;78.40;;;;;;5033811;28;20037;-84
2021/08/05 00:30:17;;;;;;;2.33;2.22;;;18.40;78.50;;;;;;5034193;28;20032;-85
2021/08/05 00:32:43;;;;;;;2.42;2.33;;;18.40;78.60;;;;;;5027721;28;20437;-84
2021/08/05 00:35:09;;;;;;;2.92;2.40;;;18.40;78.50;;;;;;5036554;28;20038;-87
2021/08/05 00:37:36;;;;;;;2.47;2.38;;;18.40;78.60;;;;;;5015247;28;20052;-85
2021/08/05 00:40:03;;;;;;;2.30;2.20;;;18.40;78.60;;;;;;5031061;28;20040;-85
2021/08/05 00:42:29;;;;;;;4.22;2.30;;;18.40;78.60;;;;;;5042036;28;20429;-85
2021/08/05 00:44:55;;;;;;;2.40;2.30;;;18.40;78.60;;;;;;5030598;28;20053;-85
2021/08/05 00:47:21;;;;;;;2.40;2.30;;;18.30;78.60;;;;;;5033801;28;20037;-82
2021/08/05 00:49:47;;;;;;;2.33;2.22;;;18.30;78.60;;;;;;5032050;28;20048;-85
2021/08/05 00:52:13;;;;;;;2.40;2.30;;;18.30;78.60;;;;;;5033390;28;20462;-84
2021/08/05 00:54:39;;;;;;;2.38;2.20;;;18.30;79.30;;;;;;5033137;28;20041;-86
2021/08/05 00:57:05;;;;;;;3.13;2.38;;;18.30;78.60;;;;;;5015249;28;20404;-86
2021/08/05 00:59:31;;;;;;;2.58;2.42;;;18.30;78.60;;;;;;5031567;28;20044;-84
2021/08/05 01:02:08;;;;;;;2.42;2.22;;;18.30;78.60;;;;;;5036036;28;20060;-84
2021/08/05 01:04:34;;;;;;;2.38;2.28;;;18.30;78.60;;;;;;5017680;28;20386;-84
2021/08/05 01:07:18;;;;;;;2.42;2.33;;;18.30;78.60;;;;;;5033321;28;20033;-85
2021/08/05 01:10:06;;;;;;;2.13;2.03;;;18.30;78.60;;;;;;5034562;28;20025;-86
2021/08/05 01:12:56;;;;;;;2.25;2.15;;;18.30;78.60;;;;;;5031833;28;20029;-84
2021/08/05 01:15:23;;;;;;;2.00;1.90;;;18.30;78.60;;;;;;5032624;28;20045;-85
2021/08/05 01:18:07;;;;;;;2.20;2.10;;;18.30;78.50;;;;;;5013261;28;20493;-83
2021/08/05 01:20:34;;;;;;;2.00;1.90;;;18.30;78.60;;;;;;5033016;28;20421;-85
2021/08/05 01:23:51;;;;;;;2.30;2.20;;;18.30;78.60;;;;;;5038610;28;20030;-85
2021/08/05 01:26:47;;;;;;;2.10;2.00;;;18.30;78.60;;;;;;5025109;28;20053;-86
2021/08/05 01:29:14;;;;;;;2.10;2.00;;;18.30;78.60;;;;;;5029288;28;20037;-85
2021/08/05 01:31:41;;;;;;;2.50;2.35;;;18.30;78.60;;;;;;5000631;28;20034;-85
2021/08/05 01:34:09;;;;;;;2.28;2.17;;;18.30;78.60;;;;;;5000674;28;20546;-85
2021/08/05 01:36:35;;;;;;;2.35;2.20;;;18.20;78.60;;;;;;5000693;28;20045;-85
2021/08/05 01:39:03;;;;;;;2.63;2.42;;;18.20;78.60;;;;;;4998964;28;20477;-86
2021/08/05 01:41:29;;;;;;;2.80;2.60;;;18.20;78.60;;;;;;5012759;28;20045;-83
2021/08/05 01:43:55;;;;;;;2.63;2.50;;;18.20;78.60;;;;;;5001093;28;20045;-85
2021/08/05 01:46:21;;;;;;;2.13;2.03;;;18.20;78.60;;;;;;5000000;28;20418;-85
2021/08/05 01:48:50;;;;;;;1.98;1.88;;;18.20;78.70;;;;;;5000305;28;20046;-85
2021/08/05 01:51:20;;;;;;;2.50;2.35;;;18.20;78.70;;;;;;5000715;28;20471;-85
2021/08/05 01:53:46;;;;;;;2.10;2.00;;;18.20;78.70;;;;;;4994169;28;20045;-85
2021/08/05 01:56:12;;;;;;;2.08;1.98;;;18.20;78.70;;;;;;5000234;28;20046;-85
2021/08/05 01:58:39;;;;;;;2.47;2.38;;;18.10;79.40;;;;;;5000214;28;20041;-86
2021/08/05 02:01:05;;;;;;;2.42;2.33;;;18.10;78.70;;;;;;4999690;28;20120;-86
2021/08/05 02:03:31;;;;;;;2.30;2.20;;;18.10;78.70;;;;;;5044744;28;20033;-85
2021/08/05 02:06:09;;;;;;;3.03;2.83;;;18.10;78.70;;;;;;5009089;28;20029;-85
2021/08/05 02:08:56;;;;;;;2.53;2.42;;;18.10;78.80;;;;;;5030674;28;20502;-87
2021/08/05 02:11:28;;;;;;;2.38;2.17;;;18.10;78.80;;;;;;5027592;28;20052;-85
2021/08/05 02:13:55;;;;;;;2.30;2.20;;;18.10;78.80;;;;;;5012964;28;20041;-84
2021/08/05 02:16:23;;;;;;;2.33;2.22;;;18.10;78.80;;;;;;5027624;28;20538;-85
2021/08/05 02:18:49;;;;;;;2.15;2.05;;;18.00;78.80;;;;;;5028089;28;20526;-86
2021/08/05 02:21:16;;;;;;;2.45;2.35;;;18.00;78.80;;;;;;5029802;28;20406;-84
2021/08/05 02:23:42;;;;;;;2.20;2.10;;;18.00;78.80;;;;;;5028345;28;20060;-84
2021/08/05 02:26:08;;;;;;;2.22;2.13;;;18.10;78.90;;;;;;5031281;28;20040;-85
2021/08/05 02:28:34;;;;;;;2.42;2.33;;;18.10;78.90;;;;;;5027894;28;20048;-86
2021/08/05 02:31:01;;;;;;;2.50;2.40;;;18.10;78.80;;;;;;5027357;28;20032;-86
2021/08/05 02:33:29;;;;;;;2.90;2.47;;;18.10;78.80;;;;;;5027125;28;20052;-85
2021/08/05 02:35:55;;;;;;;2.35;2.25;;;18.00;78.70;;;;;;5029470;28;20041;-85
2021/08/05 02:38:21;;;;;;;9.57;2.85;;;18.00;78.70;;;;;;5047334;28;20390;-86
2021/08/05 02:40:48;;;;;;;2.67;2.58;;;18.00;78.80;;;;;;5020850;28;20042;-85
2021/08/05 02:43:14;;;;;;;2.33;2.22;;;18.00;78.80;;;;;;5035201;28;20021;-85
2021/08/05 02:45:40;;;;;;;2.33;2.22;;;18.00;78.80;;;;;;5032595;28;20041;-87
2021/08/05 02:48:07;;;;;;;2.72;2.53;;;17.90;78.80;;;;;;5017448;28;20028;-85
2021/08/05 02:50:33;;;;;;;2.85;2.75;;;17.90;78.80;;;;;;5033163;28;20044;-85
2021/08/05 02:53:00;;;;;;;2.58;2.47;;;17.90;78.80;;;;;;5036903;28;20045;-85
2021/08/05 02:55:26;;;;;;;2.55;2.45;;;17.90;78.90;;;;;;5018698;28;20038;-85
2021/08/05 02:57:52;;;;;;;2.65;2.47;;;17.90;78.90;;;;;;5018366;28;20029;-85
2021/08/05 03:00:19;;;;;;;3.00;2.80;;;17.90;79.00;;;;;;5034338;28;20385;-85
2021/08/05 03:02:45;;;;;;;2.50;2.40;;;17.80;78.90;;;;;;5031778;28;20018;-85
2021/08/05 03:05:12;;;;;;;3.22;2.88;;;17.80;78.90;;;;;;5045161;28;20090;-85
2021/08/05 03:07:38;;;;;;;2.38;2.28;;;17.80;79.00;;;;;;5034852;28;20029;-85
2021/08/05 03:10:05;;;;;;;2.35;2.25;;;17.80;78.90;;;;;;5040801;28;20036;-85
2021/08/05 03:12:31;;;;;;;2.80;2.60;;;17.80;79.00;;;;;;5045250;28;20032;-84
2021/08/05 03:14:57;;;;;;;3.50;3.20;;;17.80;79.00;;;;;;5031574;28;20038;-85
2021/08/05 03:17:23;;;;;;;2.53;2.42;;;17.70;79.00;;;;;;5034411;28;20375;-84
2021/08/05 03:19:49;;;;;;;2.65;2.55;;;17.80;79.00;;;;;;5036928;28;20039;-85
2021/08/05 03:22:16;;;;;;;2.65;2.55;;;17.70;79.00;;;;;;5033306;28;20028;-85
2021/08/05 03:24:42;;;;;;;2.45;2.35;;;17.70;79.00;;;;;;5035791;28;20100;-84
2021/08/05 03:27:09;;;;;;;2.53;2.42;;;17.70;79.00;;;;;;5034278;28;20017;-83
2021/08/05 03:29:35;;;;;;;2.67;2.58;;;17.70;79.00;;;;;;5048408;28;20060;-85
2021/08/05 03:32:02;;;;;;;2.40;2.30;;;17.70;79.00;;;;;;5036904;28;20037;-87
2021/08/05 03:34:28;;;;;;;2.67;2.47;;;17.70;79.10;;;;;;5017956;28;20045;-84
2021/08/05 03:36:54;;;;;;;2.25;2.15;;;17.60;79.10;;;;;;5035288;28;20029;-85
2021/08/05 03:39:20;;;;;;;2.20;2.10;;;17.60;79.10;;;;;;5034087;28;20037;-85
2021/08/05 03:41:46;;;;;;;3.03;2.83;;;17.60;79.10;;;;;;5031176;28;20379;-86
2021/08/05 03:44:12;;;;;;;2.53;2.30;;;17.50;79.10;;;;;;5036856;28;20471;-87
2021/08/05 03:46:39;;;;;;;2.45;2.35;;;17.50;79.10;;;;;;5034769;28;20040;-85
2021/08/05 03:49:05;;;;;;;2.58;2.47;;;17.60;79.20;;;;;;5034049;28;20028;-85
2021/08/05 03:51:31;;;;;;;5.70;2.67;;;17.50;79.10;;;;;;5033698;28;20036;-85
2021/08/05 03:53:57;;;;;;;3.38;2.70;;;17.50;79.10;;;;;;5031045;28;20049;-86
2021/08/05 03:56:23;;;;;;;2.53;2.33;;;17.50;79.20;;;;;;5034292;28;20030;-85
2021/08/05 03:58:49;;;;;;;2.38;2.28;;;17.50;79.10;;;;;;5049471;28;20037;-86
2021/08/05 04:01:15;;;;;;;3.97;2.45;;;17.60;79.20;;;;;;5017096;28;20398;-85
2021/08/05 04:03:41;;;;;;;2.88;2.42;;;17.50;79.10;;;;;;5033901;28;20033;-85
2021/08/05 04:06:08;;;;;;;2.70;2.50;;;17.50;79.10;;;;;;5032238;28;20040;-85
2021/08/05 04:08:34;;;;;;;2.40;2.30;;;17.50;79.10;;;;;;5031696;28;20045;-85
2021/08/05 04:11:01;;;;;;;2.58;2.47;;;17.50;79.10;;;;;;5037070;28;20386;-86
2021/08/05 04:13:27;;;;;;;2.80;2.60;;;17.60;79.30;;;;;;5034884;28;20475;-85
2021/08/05 04:15:53;;;;;;;2.65;2.55;;;17.50;79.20;;;;;;5034330;28;20030;-85
2021/08/05 04:18:19;;;;;;;2.53;2.40;;;17.50;79.20;;;;;;5017025;28;20036;-84
2021/08/05 04:20:45;;;;;;;2.30;2.20;;;17.50;79.20;;;;;;5029170;28;20034;-87
2021/08/05 04:23:11;;;;;;;3.72;2.45;;;17.50;79.20;;;;;;5018833;28;20045;-86
2021/08/05 04:25:37;;;;;;;8.63;2.90;;;17.50;79.30;;;;;;5034872;28;20032;-85
2021/08/05 04:28:04;;;;;;;2.55;2.35;;;17.50;79.30;;;;;;5033829;28;20041;-84
2021/08/05 04:30:30;;;;;;;4.32;2.30;;;17.50;79.30;;;;;;5019199;28;20036;-84
2021/08/05 04:32:56;;;;;;;2.67;2.20;;;17.40;79.30;;;;;;5029276;28;20058;-85
2021/08/05 04:35:22;;;;;;;2.28;2.17;;;17.40;79.40;;;;;;5032599;28;20497;-86
2021/08/05 04:37:52;;;;;;;2.42;2.33;;;17.40;79.30;;;;;;5032096;28;20044;-84
2021/08/05 04:40:19;;;;;;;2.20;2.10;;;17.40;79.30;;;;;;5033589;28;20029;-85
2021/08/05 04:42:45;;;;;;;2.92;2.38;;;17.40;79.30;;;;;;5027207;28;20051;-85
2021/08/05 04:45:11;;;;;;;2.40;2.30;;;17.40;79.30;;;;;;5043325;28;20035;-85
2021/08/05 04:47:58;;;;;;;4.72;2.22;;;17.40;79.40;;;;;;5013043;28;20041;-85
2021/08/05 04:50:25;;;;;;;2.55;2.20;;;17.40;79.40;;;;;;5044280;28;20036;-88
2021/08/05 04:52:52;;;;;;;3.08;2.28;;;17.40;79.30;;;;;;5036121;28;20458;-83
2021/08/05 04:55:18;;;;;;;2.35;2.22;;;17.30;79.30;;;;;;5036652;28;20529;-85
2021/08/05 04:57:52;;;;;;;2.70;2.53;;;17.30;79.30;;;;;;5037273;28;20030;-85
2021/08/05 05:00:34;;;;;;;2.10;2.00;;;17.30;79.30;;;;;;5038039;28;20033;-85
2021/08/05 05:03:01;;;;;;;2.50;2.40;;;17.30;79.30;;;;;;5004972;28;20034;-85
2021/08/05 05:05:27;;;;;;;3.08;2.60;;;17.30;79.30;;;;;;5036517;28;20378;-85
2021/08/05 05:07:53;;;;;;;2.47;2.38;;;17.30;79.40;;;;;;5036773;28;20034;-85
2021/08/05 05:10:20;;;;;;;2.53;2.33;;;17.30;79.30;;;;;;5038250;28;20021;-85
2021/08/05 05:12:46;;;;;;;2.33;2.22;;;17.30;79.30;;;;;;5020759;28;20044;-85
2021/08/05 05:15:13;;;;;;;3.58;3.28;;;17.30;79.30;;;;;;5036804;28;20051;-85
2021/08/05 05:17:39;;;;;;;2.20;2.10;;;17.30;79.30;;;;;;5016575;28;20021;-86
2021/08/05 05:20:06;;;;;;;2.20;2.10;;;17.30;79.30;;;;;;5038873;28;20026;-85
2021/08/05 05:22:33;;;;;;;2.78;2.58;;;17.30;79.30;;;;;;5037963;28;20040;-86
2021/08/05 05:24:59;;;;;;;2.60;2.42;;;17.30;79.30;;;;;;5038028;28;20032;-85
2021/08/05 05:27:25;;;;;;;3.10;2.90;;;17.40;79.40;;;;;;5035658;28;20493;-86
2021/08/05 05:29:51;;;;;;;2.50;2.40;;;17.40;79.30;;;;;;5032353;28;20471;-86
2021/08/05 05:32:17;;;;;;;2.67;2.47;;;17.40;79.30;;;;;;5036355;28;20144;-85
2021/08/05 05:34:43;;;;;;;8.48;2.33;;;17.50;79.20;;;;;;5036364;28;20505;-85
2021/08/05 05:37:09;;;;;;;2.28;2.17;;;17.50;79.10;;;;;;5037649;28;20132;-85
2021/08/05 05:39:36;;;;;;;2.25;2.15;;;17.50;79.00;;;;;;5035413;28;20036;-85
2021/08/05 05:42:02;;;;;;;2.47;2.30;;;17.60;79.00;;;;;;5035595;28;20057;-86
2021/08/05 05:44:28;;;;;;;3.55;3.10;;;17.60;78.90;;;;;;5035986;28;20034;-85
2021/08/05 05:46:54;;;;;;;2.55;2.45;;;17.70;79.00;;;;;;5037366;28;20033;-86
2021/08/05 05:49:20;;;;;;;3.22;2.95;;;17.70;78.90;;;;;;5019728;28;20022;-85
2021/08/05 05:51:46;;;;;;;3.05;2.85;;;17.80;78.80;;;;;;5036154;28;20028;-85
2021/08/05 05:54:12;;;;;;;2.60;2.50;;;17.90;78.70;;;;;;5036676;28;20119;-86
2021/08/05 05:56:38;;;;;;;3.22;3.03;;;18.00;78.70;;;;;;5032176;28;20041;-86
2021/08/05 05:59:04;;;;;;;7.28;3.30;;;18.00;78.50;;;;;;5039238;28;20355;-85
2021/08/05 06:01:30;;;;;;;4.25;3.95;;;18.10;78.50;;;;;;5035159;28;20040;-86
2021/08/05 06:03:56;;;;;;;12.15;4.93;;;18.20;78.40;;;;;;5037148;28;20048;-86
2021/08/05 06:06:22;;;;;;;4.80;4.50;;;18.20;78.30;;;;;;5034988;28;20029;-86
2021/08/05 06:08:49;;;;;;;4.20;4.00;;;18.20;78.30;;;;;;5033390;28;20026;-88
2021/08/05 06:11:15;;;;;;;5.15;4.85;;;18.20;78.30;;;;;;5037477;28;20038;-86
2021/08/05 06:13:41;;;;;;;4.97;4.68;;;18.20;78.30;;;;;;5037336;28;20025;-84
2021/08/05 06:16:07;;;;;;;4.65;4.35;;;18.30;78.40;;;;;;5035858;28;20033;-86
2021/08/05 06:18:33;;;;;;;5.00;4.70;;;18.30;78.30;;;;;;5036945;28;20029;-85
2021/08/05 06:20:59;;;;;;;4.93;4.70;;;18.30;79.00;;;;;;5000053;28;20045;-85
2021/08/05 06:23:25;;;;;;;4.60;4.38;;;18.40;78.30;;;;;;5035753;28;20390;-86
2021/08/05 06:25:51;;;;;;;4.57;4.38;;;18.40;78.20;;;;;;5035211;28;20033;-86
2021/08/05 06:28:17;;;;;;;4.60;4.40;;;18.50;78.20;;;;;;5034784;28;20466;-84
2021/08/05 06:30:43;;;;;;;4.63;4.43;;;18.50;78.10;;;;;;5034487;28;20030;-85
2021/08/05 06:33:09;;;;;;;4.57;4.38;;;18.60;78.10;;;;;;5032727;28;20056;-85
2021/08/05 06:35:35;;;;;;;5.03;4.57;;;18.60;78.00;;;;;;5033085;28;20038;-86
2021/08/05 06:38:02;;;;;;;5.57;5.28;;;18.70;78.00;;;;;;5038420;28;20026;-86
2021/08/05 06:40:28;;;;;;;5.35;5.10;;;18.70;77.90;;;;;;5040719;28;20040;-85
2021/08/05 06:42:54;;;;;;;4.68;4.47;;;18.70;77.90;;;;;;5042748;28;20036;-85
2021/08/05 06:45:21;;;;;;;5.65;5.25;;;18.70;77.80;;;;;;5035556;28;20032;-86
2021/08/05 06:47:47;;;;;;;5.32;4.93;;;18.80;77.90;;;;;;5015394;28;20040;-87
2021/08/05 06:50:13;;;;;;;4.05;3.85;;;18.80;77.90;;;;;;5038009;28;20029;-84
2021/08/05 06:52:39;;;;;;;5.13;4.88;;;18.90;77.80;;;;;;5036230;28;20069;-86
2021/08/05 06:55:06;;;;;;;3.75;3.45;;;19.00;77.70;;;;;;5034893;28;20040;-86
2021/08/05 06:57:32;;;;;;;5.03;4.72;;;19.10;77.60;;;;;;5036277;28;20040;-86
2021/08/05 06:59:58;;;;;;;4.18;3.97;;;19.40;77.30;;;;;;5032290;28;20037;-86
2021/08/05 07:02:25;;;;;;;3.40;3.20;;;19.50;77.00;;;;;;5033661;28;20033;-85
2021/08/05 07:04:51;;;;;;;2.95;2.67;;;19.70;76.60;;;;;;5045974;28;20044;-86
2021/08/05 07:07:17;;;;;;;3.33;3.10;;;19.80;76.50;;;;;;5038992;28;20474;-85
2021/08/05 07:09:43;;;;;;;2.47;2.38;;;19.90;76.50;;;;;;5033438;28;20046;-86
2021/08/05 07:12:09;;;;;;;2.97;2.78;;;20.00;76.20;;;;;;5034843;28;20056;-85
2021/08/05 07:14:35;;;;;;;3.97;3.78;;;20.30;76.00;;;;;;5032041;28;20053;-85
2021/08/05 07:17:01;;;;;;;5.35;5.05;;;20.50;75.60;;;;;;5035762;28;20541;-86
2021/08/05 07:19:29;;;;;;;6.40;5.90;;;20.70;75.30;;;;;;5033778;28;20057;-85
2021/08/05 07:21:55;;;;;;;7.10;6.70;;;20.70;75.10;;;;;;5035420;28;20045;-84
2021/08/05 07:24:21;;;;;;;4.35;4.15;;;20.70;75.20;;;;;;5035907;28;20398;-86
2021/08/05 07:26:48;;;;;;;3.58;3.40;;;20.80;75.20;;;;;;5031464;28;20030;-86
2021/08/05 07:29:14;;;;;;;3.10;3.00;;;20.90;75.10;;;;;;5035962;28;20119;-86
2021/08/05 07:31:40;;;;;;;3.40;3.10;;;20.80;75.00;;;;;;5004772;28;20040;-85
2021/08/05 07:34:06;;;;;;;2.83;2.72;;;20.80;75.30;;;;;;5035457;28;20042;-86
2021/08/05 07:36:32;;;;;;;10.38;3.17;;;20.70;75.30;;;;;;5034176;28;20041;-85
2021/08/05 07:38:58;;;;;;;2.80;2.70;;;20.70;75.40;;;;;;5031595;28;20368;-85
2021/08/05 07:41:24;;;;;;;2.92;2.75;;;20.60;76.30;;;;;;5034676;28;20030;-85
2021/08/05 07:43:51;;;;;;;2.80;2.70;;;20.60;75.70;;;;;;5033530;28;20056;-85
2021/08/05 07:46:17;;;;;;;3.55;3.25;;;20.50;75.70;;;;;;5033701;28;20483;-85
2021/08/05 07:48:43;;;;;;;4.07;3.88;;;20.50;75.80;;;;;;5032652;28;20040;-85
2021/08/05 07:51:09;;;;;;;4.57;4.38;;;20.50;75.80;;;;;;5032863;28;20500;-86
2021/08/05 07:53:35;;;;;;;5.32;5.03;;;20.50;75.80;;;;;;5032069;28;20049;-84
2021/08/05 07:56:02;;;;;;;5.18;4.88;;;20.60;75.70;;;;;;5051137;28;20494;-86
2021/08/05 07:58:28;;;;;;;4.75;4.55;;;20.70;75.60;;;;;;5040187;28;20037;-87
2021/08/05 08:00:54;;;;;;;3.97;3.72;;;20.80;75.30;;;;;;5023210;28;20034;-86
2021/08/05 08:03:20;;;;;;;2.85;2.75;;;21.00;75.10;;;;;;5035222;28;20036;-86
2021/08/05 08:05:46;;;;;;;2.75;2.65;;;21.10;74.70;;;;;;5030886;28;20037;-83
2021/08/05 08:08:16;;;;;;;3.75;3.45;;;21.30;74.40;;;;;;5036785;28;20036;-85
2021/08/05 08:10:42;;;;;;;3.70;3.50;;;21.50;74.10;;;;;;5033619;28;20072;-86
2021/08/05 08:13:08;;;;;;;3.55;3.35;;;21.60;73.80;;;;;;5030456;28;20017;-84
2021/08/05 08:15:34;;;;;;;4.10;3.90;;;21.60;73.80;;;;;;5042040;28;20041;-86
2021/08/05 08:18:00;;;;;;;3.55;3.40;;;21.60;73.80;;;;;;5032604;28;20044;-85
2021/08/05 08:20:27;;;;;;;3.75;3.55;;;21.50;73.80;;;;;;5032951;28;20034;-85
2021/08/05 08:22:53;;;;;;;3.30;3.20;;;21.50;73.80;;;;;;5036579;28;20080;-86
2021/08/05 08:25:19;;;;;;;3.83;3.63;;;21.50;73.90;;;;;;5034883;28;20521;-85
2021/08/05 08:27:46;;;;;;;4.13;3.92;;;21.40;74.00;;;;;;5033122;28;20026;-84
2021/08/05 08:30:12;;;;;;;3.47;3.35;;;21.30;74.20;;;;;;5035713;28;20037;-87
2021/08/05 08:32:38;;;;;;;4.03;3.83;;;21.20;74.30;;;;;;5033491;28;20040;-84
2021/08/05 08:35:05;;;;;;;2.78;2.67;;;21.10;74.30;;;;;;5040740;28;20033;-84
2021/08/05 08:37:31;;;;;;;2.80;2.70;;;21.10;74.40;;;;;;5037307;28;20414;-86
2021/08/05 08:39:57;;;;;;;2.78;2.67;;;21.10;74.40;;;;;;5038820;28;20025;-86
2021/08/05 08:42:23;;;;;;;3.17;3.00;;;21.00;74.40;;;;;;5038603;28;20385;-86
2021/08/05 08:44:49;;;;;;;2.58;2.47;;;21.00;74.40;;;;;;5034876;28;20394;-87
2021/08/05 08:47:15;;;;;;;2.45;2.35;;;20.90;74.40;;;;;;5039486;28;20033;-86
2021/08/05 08:49:42;;;;;;;3.15;2.65;;;20.90;74.50;;;;;;5036045;28;20097;-87
2021/08/05 08:52:09;;;;;;;2.70;2.60;;;20.90;75.40;;;;;;5034293;28;20060;-86
2021/08/05 08:54:40;;;;;;;2.78;2.67;;;20.80;74.50;;;;;;5037305;28;20056;-85
2021/08/05 08:57:06;;;;;;;2.50;2.40;;;20.80;74.60;;;;;;5035369;28;20786;-85
2021/08/05 08:59:32;;;;;;;2.95;2.80;;;20.80;74.60;;;;;;5018027;28;20040;-86
2021/08/05 09:01:58;;;;;;;2.63;2.53;;;20.80;74.50;;;;;;5038739;28;20030;-85
2021/08/05 09:04:24;;;;;;;3.13;2.92;;;20.80;74.40;;;;;;5038329;28;20038;-86
2021/08/05 09:06:50;;;;;;;2.88;2.78;;;20.90;74.50;;;;;;5035635;28;20029;-85
2021/08/05 09:09:17;;;;;;;2.40;2.30;;;20.80;74.30;;;;;;5037614;28;20041;-86
2021/08/05 09:11:43;;;;;;;2.70;2.60;;;20.80;74.30;;;;;;5032446;28;20041;-86
2021/08/05 09:14:10;;;;;;;2.85;2.75;;;20.80;74.40;;;;;;5038978;28;20029;-86
2021/08/05 09:16:36;;;;;;;2.47;2.38;;;20.80;74.50;;;;;;5020448;28;20056;-87
2021/08/05 09:19:15;;;;;;;2.42;2.33;;;20.80;74.60;;;;;;5036941;28;20041;-87
2021/08/05 09:21:54;;;;;;;2.83;2.70;;;20.80;74.60;;;;;;5038232;28;20026;-86
2021/08/05 09:24:27;;;;;;;2.53;2.35;;;20.80;74.50;;;;;;5036539;28;20029;-86
2021/08/05 09:26:56;;;;;;;2.58;2.47;;;20.80;74.40;;;;;;5016957;28;20036;-86
2021/08/05 09:29:23;;;;;;;2.53;2.33;;;20.90;74.30;;;;;;5036024;28;20026;-86
2021/08/05 09:31:55;;;;;;;2.78;2.67;;;20.90;74.30;;;;;;5039545;28;20029;-86
2021/08/05 09:34:35;;;;;;;2.65;2.55;;;20.90;74.20;;;;;;5039333;28;20049;-89
2021/08/05 09:37:03;;;;;;;2.72;2.63;;;20.90;74.20;;;;;;5036663;28;20037;-86
2021/08/05 09:39:31;;;;;;;3.22;3.03;;;20.90;74.30;;;;;;5020614;28;20401;-86
2021/08/05 09:42:06;;;;;;;2.90;2.80;;;20.80;74.30;;;;;;5031915;28;20030;-86
2021/08/05 09:44:38;;;;;;;2.72;2.63;;;20.80;74.40;;;;;;5035295;28;20049;-87
2021/08/05 09:47:05;;;;;;;2.85;2.75;;;20.80;74.50;;;;;;5037982;28;20033;-86
2021/08/05 09:49:35;;;;;;;2.75;2.65;;;20.70;74.40;;;;;;5036415;28;20030;-83
2021/08/05 09:52:01;;;;;;;2.63;2.53;;;20.80;74.40;;;;;;5037041;28;20060;-85
2021/08/05 09:54:48;;;;;;;2.63;2.53;;;20.80;74.30;;;;;;5019431;28;20036;-86
2021/08/05 09:57:27;;;;;;;2.67;2.58;;;20.90;74.20;;;;;;5035584;28;20481;-86
2021/08/05 09:59:57;;;;;;;3.25;3.05;;;20.90;74.00;;;;;;5019388;28;20391;-86
2021/08/05 10:02:25;;;;;;;2.70;2.60;;;20.90;73.90;;;;;;5018385;28;20029;-86
2021/08/05 10:04:54;;;;;;;2.47;2.38;;;21.00;73.90;;;;;;5051503;28;20025;-86
2021/08/05 10:07:20;;;;;;;2.50;2.40;;;21.00;73.80;;;;;;5037177;28;20030;-86
2021/08/05 10:09:56;;;;;;;2.90;2.80;;;21.00;73.70;;;;;;5036865;28;20025;-85
2021/08/05 10:12:30;;;;;;;2.78;2.67;;;21.10;73.60;;;;;;5018388;28;20036;-88
2021/08/05 10:15:13;;;;;;;2.85;2.70;;;21.10;73.50;;;;;;5031393;28;20021;-86
2021/08/05 10:17:40;;;;;;;2.40;2.30;;;21.10;73.40;;;;;;5030733;28;20046;-86
2021/08/05 10:20:11;;;;;;;2.67;2.58;;;21.20;73.40;;;;;;5053407;28;20028;-86
2021/08/05 10:22:37;;;;;;;;;;;21.20;73.30;;;;;;5036690;28;20068;-86
2021/08/05 10:25:07;;;;;;;2.70;2.60;;;21.30;73.30;;;;;;5035709;28;19916;-86
2021/08/05 10:27:34;;;;;;;2.65;2.55;;;21.40;73.10;;;;;;5027880;28;20037;-84
2021/08/05 10:30:00;;;;;;;3.28;3.08;;;21.50;72.90;;;;;;5046546;28;20030;-86
2021/08/05 10:32:26;;;;;;;2.78;2.67;;;21.60;72.80;;;;;;5017299;28;20056;-86
2021/08/05 10:34:52;;;;;;;2.88;2.78;;;21.60;72.60;;;;;;5047568;28;20033;-87
2021/08/05 10:37:19;;;;;;;2.90;2.80;;;21.60;72.60;;;;;;5041637;28;20033;-85
2021/08/05 10:39:45;;;;;;;3.15;3.05;;;21.60;72.60;;;;;;5026870;28;20026;-85
2021/08/05 10:42:15;;;;;;;2.97;2.88;;;21.60;72.50;;;;;;5032526;28;20051;-86
2021/08/05 10:44:41;;;;;;;3.10;3.00;;;21.70;72.50;;;;;;5014403;28;20384;-85
2021/08/05 10:47:11;;;;;;;3.42;3.22;;;21.60;72.50;;;;;;5037554;28;20033;-87
2021/08/05 10:49:37;;;;;;;3.30;3.20;;;21.60;72.60;;;;;;5033260;28;20036;-86
2021/08/05 10:52:03;;;;;;;3.15;3.05;;;21.60;72.60;;;;;;5015597;28;20497;-85
2021/08/05 10:54:50;;;;;;;3.10;3.00;;;21.60;72.50;;;;;;5034955;28;20033;-85
2021/08/05 10:57:21;;;;;;;3.33;3.20;;;21.70;72.60;;;;;;5034410;28;20044;-85
2021/08/05 11:00:09;;;;;;;3.40;3.25;;;21.70;72.40;;;;;;5016674;28;20486;-86
2021/08/05 11:02:54;;;;;;;3.38;3.28;;;21.70;72.40;;;;;;5032428;28;20068;-86
2021/08/05 11:05:23;;;;;;;3.13;3.03;;;21.70;72.40;;;;;;5044659;28;20025;-86
2021/08/05 11:07:53;;;;;;;3.40;3.20;;;21.70;72.40;;;;;;5049500;28;20504;-85
2021/08/05 11:10:25;;;;;;;2.70;2.60;;;21.60;72.40;;;;;;5021828;28;20030;-86
2021/08/05 11:12:55;;;;;;;2.60;2.50;;;21.60;72.60;;;;;;5034258;28;20041;-85
2021/08/05 11:18:10;;;;;;;3.50;3.35;;;21.60;72.60;;;;;;5031135;28;20486;-85
2021/08/05 11:20:52;;;;;;;2.90;2.80;;;21.60;72.60;;;;;;5021856;28;20049;-87
2021/08/05 11:23:37;;;;;;;3.28;3.17;;;21.60;72.60;;;;;;5013813;28;20026;-86
2021/08/05 11:26:04;;;;;;;3.05;2.95;;;21.60;72.60;;;;;;5036538;28;20025;-86
2021/08/05 11:28:44;;;;;;;2.88;2.78;;;21.50;72.60;;;;;;5018127;28;20036;-85
2021/08/05 11:31:22;;;;;;;2.75;2.65;;;21.50;72.60;;;;;;5025909;28;20032;-87
2021/08/05 11:33:55;;;;;;;3.40;3.22;;;21.50;72.60;;;;;;5036762;28;20040;-85
2021/08/05 11:36:25;;;;;;;2.55;2.45;;;21.50;72.60;;;;;;5026265;28;20052;-85
2021/08/05 11:39:13;;;;;;;2.30;2.20;;;21.40;72.60;;;;;;5030716;28;20032;-85
2021/08/05 11:41:59;;;;;;;2.60;2.50;;;21.40;72.70;;;;;;5031358;28;20387;-86
2021/08/05 11:44:35;;;;;;;2.40;2.30;;;21.40;72.70;;;;;;5044246;28;20390;-85
2021/08/05 11:47:11;;;;;;;2.55;2.45;;;21.40;72.80;;;;;;5041087;28;20385;-85
2021/08/05 11:49:54;;;;;;;2.88;2.75;;;21.30;72.80;;;;;;5035386;28;20034;-86
2021/08/05 11:52:29;;;;;;;2.72;2.63;;;21.30;72.90;;;;;;5034164;28;20033;-86
2021/08/05 11:55:15;;;;;;;2.63;2.53;;;21.30;72.90;;;;;;5036543;28;20033;-87
2021/08/05 11:57:41;;;;;;;2.25;2.15;;;21.30;72.90;;;;;;5034006;28;20034;-87
2021/08/05 12:00:12;;;;;;;2.10;2.00;;;21.40;72.80;;;;;;5033234;28;20065;-85
2021/08/05 12:02:38;;;;;;;;;;;21.50;72.60;;;;;;5014824;28;22317;-86
2021/08/05 12:05:05;;;;;;;2.75;2.65;;;21.50;72.40;;;;;;5036577;28;19992;-86
2021/08/05 12:07:34;;;;;;;2.42;2.33;;;21.60;72.30;;;;;;5003474;28;20041;-85
2021/08/05 12:10:11;;;;;;;2.78;2.67;;;21.60;72.20;;;;;;5032918;28;20025;-85
2021/08/05 12:12:52;;;;;;;2.90;2.80;;;21.60;72.20;;;;;;5033452;28;20108;-85
2021/08/05 12:15:29;;;;;;;2.97;2.88;;;21.60;72.20;;;;;;5031774;28;20037;-87
2021/08/05 12:18:00;;;;;;;2.90;2.70;;;21.60;72.20;;;;;;5011093;28;20045;-85
2021/08/05 12:20:34;;;;;;;2.60;2.50;;;21.60;72.40;;;;;;5045065;28;20029;-87
2021/08/05 12:23:03;;;;;;;2.42;2.33;;;21.50;72.40;;;;;;5035466;28;20041;-86
2021/08/05 12:25:37;;;;;;;2.67;2.58;;;21.50;72.50;;;;;;5033656;28;20034;-86
2021/08/05 12:28:15;;;;;;;2.78;2.67;;;21.50;72.60;;;;;;5034985;28;20029;-86
2021/08/05 12:30:46;;;;;;;2.42;2.33;;;21.50;72.60;;;;;;5036449;28;20044;-85
2021/08/05 12:33:17;;;;;;;2.80;2.40;;;21.50;72.70;;;;;;5045772;28;20037;-87
2021/08/05 12:36:02;;;;;;;2.65;2.55;;;21.50;72.60;;;;;;5013407;28;20034;-86
2021/08/05 12:38:28;;;;;;;2.58;2.47;;;21.50;72.70;;;;;;5013035;28;20045;-86
2021/08/05 12:40:55;;;;;;;2.70;2.60;;;21.50;72.70;;;;;;5045398;28;20399;-86
2021/08/05 12:43:22;;;;;;;2.60;2.50;;;21.50;72.70;;;;;;5036132;28;20040;-86
2021/08/05 12:45:49;;;;;;;2.50;2.40;;;21.50;72.90;;;;;;5016928;28;20029;-86
2021/08/05 12:48:15;;;;;;;2.60;2.50;;;21.60;72.70;;;;;;5043420;28;20035;-85
2021/08/05 12:50:45;;;;;;;2.42;2.33;;;21.60;72.60;;;;;;5013045;28;20025;-86
2021/08/05 12:53:29;;;;;;;2.60;2.50;;;21.70;72.50;;;;;;5046778;28;20025;-85
2021/08/05 12:55:55;;;;;;;2.70;2.60;;;21.80;72.30;;;;;;5032885;28;20057;-86
2021/08/05 12:58:22;;;;;;;2.55;2.45;;;22.00;72.00;;;;;;5034621;28;20052;-86